sensor_id;sensor_type;location;lat;lon;timestamp;pressure;altitude;pressure_sealevel;temperature;humidity
22104;BME280;11218;48.886;9.426;2023-05-19T00:00:08;98477.22;;;12.47;56.92
22104;BME280;11218;48.886;9.426;2023-05-19T00:02:38;98483.13;;;12.44;56.64
22104;BME280;11218;48.886;9.426;2023-05-19T00:05:08;98480.59;;;12.37;56.43
22104;BME280;11218;48.886;9.426;2023-05-19T00:07:37;98475.97;;;12.33;57.21
22104;BME280;11218;48.886;9.426;2023-05-19T00:10:07;98480.03;;;12.35;56.79
22104;BME280;11218;48.886;9.426;2023-05-19T00:12:36;98474.88;;;12.34;57.29
22104;BME280;11218;48.886;9.426;2023-05-19T00:15:07;98471.69;;;12.37;57.41
22104;BME280;11218;48.886;9.426;2023-05-19T00:17:36;98470.88;;;12.36;57.49
22104;BME280;11218;48.886;9.426;2023-05-19T00:20:05;98474.97;;;12.39;56.62
22104;BME280;11218;48.886;9.426;2023-05-19T00:22:34;98473.56;;;12.36;57.13
22104;BME280;11218;48.886;9.426;2023-05-19T00:25:02;98474.06;;;12.33;58.02
22104;BME280;11218;48.886;9.426;2023-05-19T00:27:31;98472.19;;;12.34;57.87
22104;BME280;11218;48.886;9.426;2023-05-19T00:29:59;98471.13;;;12.35;58.59
22104;BME280;11218;48.886;9.426;2023-05-19T00:32:29;98477.91;;;12.37;57.99
22104;BME280;11218;48.886;9.426;2023-05-19T00:34:58;98475.47;;;12.36;58.55
22104;BME280;11218;48.886;9.426;2023-05-19T00:37:26;98471.94;;;12.35;58.85
22104;BME280;11218;48.886;9.426;2023-05-19T00:39:54;98466.78;;;12.34;58.77
22104;BME280;11218;48.886;9.426;2023-05-19T00:42:24;98469.75;;;12.32;58.47
22104;BME280;11218;48.886;9.426;2023-05-19T00:44:53;98464.59;;;12.31;59.01
22104;BME280;11218;48.886;9.426;2023-05-19T00:47:21;98462.88;;;12.25;58.71
22104;BME280;11218;48.886;9.426;2023-05-19T00:49:52;98455.84;;;12.24;59.03
22104;BME280;11218;48.886;9.426;2023-05-19T00:52:20;98454.72;;;12.20;59.03
22104;BME280;11218;48.886;9.426;2023-05-19T00:54:50;98458.81;;;12.22;59.27
22104;BME280;11218;48.886;9.426;2023-05-19T00:57:18;98451.47;;;12.17;59.21
22104;BME280;11218;48.886;9.426;2023-05-19T00:59:47;98457.09;;;12.16;59.02
22104;BME280;11218;48.886;9.426;2023-05-19T01:02:15;98453.03;;;12.13;59.18
22104;BME280;11218;48.886;9.426;2023-05-19T01:04:43;98455.91;;;12.07;59.95
22104;BME280;11218;48.886;9.426;2023-05-19T01:07:14;98447.75;;;12.02;59.92
22104;BME280;11218;48.886;9.426;2023-05-19T01:09:46;98456.91;;;12.01;60.51
22104;BME280;11218;48.886;9.426;2023-05-19T01:12:14;98449.13;;;12.04;60.31
22104;BME280;11218;48.886;9.426;2023-05-19T01:14:43;98446.41;;;12.04;60.54
22104;BME280;11218;48.886;9.426;2023-05-19T01:17:20;98448.56;;;12.02;60.81
22104;BME280;11218;48.886;9.426;2023-05-19T01:19:57;98450.38;;;11.97;60.57
22104;BME280;11218;48.886;9.426;2023-05-19T01:22:41;98450.38;;;11.97;61.21
22104;BME280;11218;48.886;9.426;2023-05-19T01:25:43;98452.56;;;12.00;61.46
22104;BME280;11218;48.886;9.426;2023-05-19T01:28:29;98454.53;;;12.04;61.44
22104;BME280;11218;48.886;9.426;2023-05-19T01:30:59;98464.56;;;12.09;61.72
22104;BME280;11218;48.886;9.426;2023-05-19T01:33:29;98455.66;;;12.08;61.32
22104;BME280;11218;48.886;9.426;2023-05-19T01:35:58;98451.56;;;12.06;61.76
22104;BME280;11218;48.886;9.426;2023-05-19T01:38:28;98463.19;;;12.06;61.63
22104;BME280;11218;48.886;9.426;2023-05-19T01:40:56;98454.84;;;12.08;61.71
22104;BME280;11218;48.886;9.426;2023-05-19T01:43:25;98466.69;;;12.07;61.77
22104;BME280;11218;48.886;9.426;2023-05-19T01:45:55;98465.88;;;12.06;61.78
22104;BME280;11218;48.886;9.426;2023-05-19T01:48:26;98467.75;;;12.06;61.89
22104;BME280;11218;48.886;9.426;2023-05-19T01:50:54;98459.91;;;12.04;61.96
22104;BME280;11218;48.886;9.426;2023-05-19T01:53:24;98464.25;;;12.05;62.18
22104;BME280;11218;48.886;9.426;2023-05-19T01:55:54;98462.63;;;12.04;61.73
22104;BME280;11218;48.886;9.426;2023-05-19T01:58:30;98455.84;;;12.02;61.92
22104;BME280;11218;48.886;9.426;2023-05-19T02:01:03;98457.72;;;12.01;62.30
22104;BME280;11218;48.886;9.426;2023-05-19T02:04:08;98457.97;;;12.00;62.53
22104;BME280;11218;48.886;9.426;2023-05-19T02:06:43;98458.69;;;11.95;62.25
22104;BME280;11218;48.886;9.426;2023-05-19T02:09:17;98456.50;;;11.92;62.13
22104;BME280;11218;48.886;9.426;2023-05-19T02:11:48;98454.28;;;11.89;62.58
22104;BME280;11218;48.886;9.426;2023-05-19T02:14:24;98452.94;;;11.87;62.56
22104;BME280;11218;48.886;9.426;2023-05-19T02:16:56;98448.63;;;11.86;62.57
22104;BME280;11218;48.886;9.426;2023-05-19T02:19:30;98455.69;;;11.75;63.13
22104;BME280;11218;48.886;9.426;2023-05-19T02:21:59;98468.13;;;11.76;63.43
22104;BME280;11218;48.886;9.426;2023-05-19T02:24:27;98453.59;;;11.77;63.19
22104;BME280;11218;48.886;9.426;2023-05-19T02:26:55;98455.63;;;11.70;63.00
22104;BME280;11218;48.886;9.426;2023-05-19T02:29:23;98453.25;;;11.57;63.81
22104;BME280;11218;48.886;9.426;2023-05-19T02:31:52;98451.88;;;11.54;64.26
22104;BME280;11218;48.886;9.426;2023-05-19T02:34:23;98455.38;;;11.55;63.96
22104;BME280;11218;48.886;9.426;2023-05-19T02:36:55;98456.13;;;11.50;64.70
22104;BME280;11218;48.886;9.426;2023-05-19T02:39:23;98454.25;;;11.50;65.02
22104;BME280;11218;48.886;9.426;2023-05-19T02:41:51;98448.28;;;11.48;65.06
22104;BME280;11218;48.886;9.426;2023-05-19T02:44:20;98449.66;;;11.51;65.29
22104;BME280;11218;48.886;9.426;2023-05-19T02:46:48;98455.88;;;11.51;65.70
22104;BME280;11218;48.886;9.426;2023-05-19T02:49:16;98451.78;;;11.49;65.80
22104;BME280;11218;48.886;9.426;2023-05-19T02:51:45;98454.97;;;11.46;64.77
22104;BME280;11218;48.886;9.426;2023-05-19T02:54:14;98449.00;;;11.44;65.14
22104;BME280;11218;48.886;9.426;2023-05-19T02:56:42;98447.06;;;11.39;65.60
22104;BME280;11218;48.886;9.426;2023-05-19T02:59:11;98445.41;;;11.38;65.52
22104;BME280;11218;48.886;9.426;2023-05-19T03:01:39;98442.72;;;11.38;65.03
22104;BME280;11218;48.886;9.426;2023-05-19T03:04:07;98442.97;;;11.37;65.35
22104;BME280;11218;48.886;9.426;2023-05-19T03:06:35;98438.31;;;11.32;65.73
22104;BME280;11218;48.886;9.426;2023-05-19T03:09:04;98445.00;;;11.30;65.17
22104;BME280;11218;48.886;9.426;2023-05-19T03:11:34;98434.06;;;11.19;65.60
22104;BME280;11218;48.886;9.426;2023-05-19T03:14:02;98443.19;;;11.18;65.57
22104;BME280;11218;48.886;9.426;2023-05-19T03:16:30;98428.56;;;11.14;65.92
22104;BME280;11218;48.886;9.426;2023-05-19T03:18:59;98431.78;;;11.11;66.47
22104;BME280;11218;48.886;9.426;2023-05-19T03:21:27;98435.44;;;11.05;66.39
22104;BME280;11218;48.886;9.426;2023-05-19T03:23:57;98430.47;;;10.97;66.70
22104;BME280;11218;48.886;9.426;2023-05-19T03:26:26;98435.50;;;10.94;66.80
22104;BME280;11218;48.886;9.426;2023-05-19T03:28:56;98435.41;;;10.89;67.18
22104;BME280;11218;48.886;9.426;2023-05-19T03:31:24;98437.63;;;10.92;66.91
22104;BME280;11218;48.886;9.426;2023-05-19T03:33:52;98444.31;;;10.89;66.78
22104;BME280;11218;48.886;9.426;2023-05-19T03:36:21;98442.69;;;10.88;67.16
22104;BME280;11218;48.886;9.426;2023-05-19T03:38:49;98437.19;;;10.83;67.38
22104;BME280;11218;48.886;9.426;2023-05-19T03:41:18;98435.81;;;10.80;67.67
22104;BME280;11218;48.886;9.426;2023-05-19T03:43:47;98437.94;;;10.78;67.78
22104;BME280;11218;48.886;9.426;2023-05-19T03:46:16;98434.66;;;10.76;67.75
22104;BME280;11218;48.886;9.426;2023-05-19T03:48:45;98441.09;;;10.75;67.77
22104;BME280;11218;48.886;9.426;2023-05-19T03:51:13;98430.47;;;10.69;68.23
22104;BME280;11218;48.886;9.426;2023-05-19T03:53:41;98435.84;;;10.69;68.28
22104;BME280;11218;48.886;9.426;2023-05-19T03:56:11;98435.03;;;10.68;68.46
22104;BME280;11218;48.886;9.426;2023-05-19T03:58:42;98436.09;;;10.67;68.52
22104;BME280;11218;48.886;9.426;2023-05-19T04:01:12;98447.19;;;10.71;68.19
22104;BME280;11218;48.886;9.426;2023-05-19T04:03:42;98451.09;;;10.63;68.55
22104;BME280;11218;48.886;9.426;2023-05-19T04:06:11;98448.41;;;10.63;68.06
22104;BME280;11218;48.886;9.426;2023-05-19T04:08:40;98447.69;;;10.68;68.92
22104;BME280;11218;48.886;9.426;2023-05-19T04:11:10;98454.94;;;10.67;69.46
22104;BME280;11218;48.886;9.426;2023-05-19T04:13:38;98452.94;;;10.74;69.10
22104;BME280;11218;48.886;9.426;2023-05-19T04:16:07;98448.50;;;10.68;68.63
22104;BME280;11218;48.886;9.426;2023-05-19T04:18:35;98459.28;;;10.68;68.64
22104;BME280;11218;48.886;9.426;2023-05-19T04:21:05;98461.59;;;10.76;68.33
22104;BME280;11218;48.886;9.426;2023-05-19T04:23:34;98450.72;;;10.71;68.41
22104;BME280;11218;48.886;9.426;2023-05-19T04:26:02;98455.28;;;10.71;68.49
22104;BME280;11218;48.886;9.426;2023-05-19T04:28:32;98451.28;;;10.73;68.73
22104;BME280;11218;48.886;9.426;2023-05-19T04:31:04;98458.06;;;10.76;68.98
22104;BME280;11218;48.886;9.426;2023-05-19T04:33:36;98458.97;;;10.81;68.73
22104;BME280;11218;48.886;9.426;2023-05-19T04:36:07;98467.41;;;10.85;68.64
22104;BME280;11218;48.886;9.426;2023-05-19T04:38:36;98466.59;;;10.84;68.57
22104;BME280;11218;48.886;9.426;2023-05-19T04:41:05;98467.41;;;10.85;68.82
22104;BME280;11218;48.886;9.426;2023-05-19T04:43:36;98468.78;;;10.88;69.15
22104;BME280;11218;48.886;9.426;2023-05-19T04:46:08;98468.06;;;10.92;68.85
22104;BME280;11218;48.886;9.426;2023-05-19T04:48:39;98466.53;;;10.96;68.28
22104;BME280;11218;48.886;9.426;2023-05-19T04:51:09;98467.44;;;11.02;68.31
22104;BME280;11218;48.886;9.426;2023-05-19T04:53:40;98466.97;;;11.05;68.21
22104;BME280;11218;48.886;9.426;2023-05-19T04:56:09;98469.16;;;11.08;68.32
22104;BME280;11218;48.886;9.426;2023-05-19T04:58:40;98468.34;;;11.07;68.15
22104;BME280;11218;48.886;9.426;2023-05-19T05:01:10;98467.38;;;11.13;67.83
22104;BME280;11218;48.886;9.426;2023-05-19T05:03:39;98465.81;;;11.17;67.23
22104;BME280;11218;48.886;9.426;2023-05-19T05:06:08;98470.38;;;11.17;67.03
22104;BME280;11218;48.886;9.426;2023-05-19T05:08:38;98468.84;;;11.21;66.74
22104;BME280;11218;48.886;9.426;2023-05-19T05:11:07;98468.34;;;11.24;66.76
22104;BME280;11218;48.886;9.426;2023-05-19T05:13:36;98464.03;;;11.23;66.69
22104;BME280;11218;48.886;9.426;2023-05-19T05:16:05;98461.91;;;11.25;66.73
22104;BME280;11218;48.886;9.426;2023-05-19T05:18:34;98461.66;;;11.27;66.49
22104;BME280;11218;48.886;9.426;2023-05-19T05:21:05;98465.84;;;11.34;66.96
22104;BME280;11218;48.886;9.426;2023-05-19T05:23:34;98463.47;;;11.38;66.21
22104;BME280;11218;48.886;9.426;2023-05-19T05:26:08;98457.44;;;11.47;65.80
22104;BME280;11218;48.886;9.426;2023-05-19T05:28:37;98464.69;;;11.47;65.58
22104;BME280;11218;48.886;9.426;2023-05-19T05:31:05;98455.78;;;11.46;65.57
22104;BME280;11218;48.886;9.426;2023-05-19T05:33:33;98454.56;;;11.54;65.95
22104;BME280;11218;48.886;9.426;2023-05-19T05:36:01;98453.00;;;11.58;65.46
22104;BME280;11218;48.886;9.426;2023-05-19T05:38:30;98445.75;;;11.59;64.89
22104;BME280;11218;48.886;9.426;2023-05-19T05:41:00;98453.19;;;11.68;65.32
22104;BME280;11218;48.886;9.426;2023-05-19T05:43:30;98456.19;;;11.72;64.50
22104;BME280;11218;48.886;9.426;2023-05-19T05:45:59;98455.13;;;11.73;64.87
22104;BME280;11218;48.886;9.426;2023-05-19T05:48:27;98448.69;;;11.74;65.25
22104;BME280;11218;48.886;9.426;2023-05-19T05:50:56;98453.34;;;11.78;64.36
22104;BME280;11218;48.886;9.426;2023-05-19T05:53:29;98463.97;;;11.85;64.03
22104;BME280;11218;48.886;9.426;2023-05-19T05:55:58;98458.38;;;11.92;64.04
22104;BME280;11218;48.886;9.426;2023-05-19T05:58:27;98471.44;;;12.00;63.99
22104;BME280;11218;48.886;9.426;2023-05-19T06:00:57;98461.72;;;11.99;64.87
22104;BME280;11218;48.886;9.426;2023-05-19T06:03:25;98459.91;;;12.04;64.80
22104;BME280;11218;48.886;9.426;2023-05-19T06:05:56;98459.06;;;12.21;64.66
22104;BME280;11218;48.886;9.426;2023-05-19T06:08:24;98468.28;;;12.25;64.49
22104;BME280;11218;48.886;9.426;2023-05-19T06:11:01;98469.81;;;12.37;63.83
22104;BME280;11218;48.886;9.426;2023-05-19T06:13:34;98466.59;;;12.40;64.47
22104;BME280;11218;48.886;9.426;2023-05-19T06:16:04;98472.13;;;12.50;63.58
22104;BME280;11218;48.886;9.426;2023-05-19T06:18:33;98465.16;;;12.55;64.27
22104;BME280;11218;48.886;9.426;2023-05-19T06:21:01;98468.75;;;12.60;63.62
22104;BME280;11218;48.886;9.426;2023-05-19T06:23:30;98469.00;;;12.59;63.59
22104;BME280;11218;48.886;9.426;2023-05-19T06:25:58;98467.06;;;12.54;63.33
22104;BME280;11218;48.886;9.426;2023-05-19T06:28:27;98454.69;;;12.58;63.43
22104;BME280;11218;48.886;9.426;2023-05-19T06:30:55;98459.28;;;12.63;63.88
22104;BME280;11218;48.886;9.426;2023-05-19T06:33:25;98460.16;;;12.68;64.16
22104;BME280;11218;48.886;9.426;2023-05-19T06:35:55;98463.50;;;12.75;63.52
22104;BME280;11218;48.886;9.426;2023-05-19T06:38:23;98461.09;;;12.79;63.50
22104;BME280;11218;48.886;9.426;2023-05-19T06:40:52;98455.75;;;12.84;62.89
22104;BME280;11218;48.886;9.426;2023-05-19T06:43:20;98458.50;;;12.89;62.47
22104;BME280;11218;48.886;9.426;2023-05-19T06:45:51;98455.84;;;12.94;62.56
22104;BME280;11218;48.886;9.426;2023-05-19T06:48:20;98463.25;;;13.04;61.93
22104;BME280;11218;48.886;9.426;2023-05-19T06:50:49;98458.41;;;13.06;61.78
22104;BME280;11218;48.886;9.426;2023-05-19T06:53:18;98464.19;;;13.14;61.63
22104;BME280;11218;48.886;9.426;2023-05-19T06:55:46;98458.72;;;13.09;61.88
22104;BME280;11218;48.886;9.426;2023-05-19T06:58:25;98455.00;;;13.15;60.94
22104;BME280;11218;48.886;9.426;2023-05-19T07:00:54;98460.47;;;13.21;61.60
22104;BME280;11218;48.886;9.426;2023-05-19T07:03:22;98462.69;;;13.24;60.81
22104;BME280;11218;48.886;9.426;2023-05-19T07:05:52;98454.31;;;13.25;60.92
22104;BME280;11218;48.886;9.426;2023-05-19T07:08:20;98454.16;;;13.42;60.56
22104;BME280;11218;48.886;9.426;2023-05-19T07:10:48;98457.97;;;13.46;59.72
22104;BME280;11218;48.886;9.426;2023-05-19T07:13:17;98460.75;;;13.56;59.63
22104;BME280;11218;48.886;9.426;2023-05-19T07:15:45;98455.94;;;13.63;59.99
22104;BME280;11218;48.886;9.426;2023-05-19T07:18:14;98451.94;;;13.71;60.55
22104;BME280;11218;48.886;9.426;2023-05-19T07:20:42;98451.25;;;13.86;61.06
22104;BME280;11218;48.886;9.426;2023-05-19T07:23:12;98448.84;;;13.89;60.53
22104;BME280;11218;48.886;9.426;2023-05-19T07:25:42;98450.75;;;13.94;59.02
22104;BME280;11218;48.886;9.426;2023-05-19T07:28:11;98451.88;;;13.98;59.65
22104;BME280;11218;48.886;9.426;2023-05-19T07:30:39;98455.91;;;13.95;58.34
22104;BME280;11218;48.886;9.426;2023-05-19T07:33:07;98447.25;;;13.93;58.63
22104;BME280;11218;48.886;9.426;2023-05-19T07:35:35;98450.19;;;13.92;58.59
22104;BME280;11218;48.886;9.426;2023-05-19T07:38:03;98449.34;;;13.86;58.58
22104;BME280;11218;48.886;9.426;2023-05-19T07:40:34;98450.50;;;13.95;59.73
22104;BME280;11218;48.886;9.426;2023-05-19T07:43:02;98447.25;;;13.93;58.37
22104;BME280;11218;48.886;9.426;2023-05-19T07:45:30;98449.75;;;14.05;58.13
22104;BME280;11218;48.886;9.426;2023-05-19T07:47:58;98447.59;;;14.07;58.30
22104;BME280;11218;48.886;9.426;2023-05-19T07:50:27;98442.69;;;14.04;58.95
22104;BME280;11218;48.886;9.426;2023-05-19T07:52:55;98442.47;;;14.10;58.55
22104;BME280;11218;48.886;9.426;2023-05-19T07:55:23;98441.91;;;14.08;58.83
22104;BME280;11218;48.886;9.426;2023-05-19T07:57:55;98435.44;;;14.14;57.75
22104;BME280;11218;48.886;9.426;2023-05-19T08:00:23;98435.69;;;14.13;59.22
22104;BME280;11218;48.886;9.426;2023-05-19T08:02:51;98428.88;;;14.00;57.95
22104;BME280;11218;48.886;9.426;2023-05-19T08:05:20;98429.13;;;13.99;59.01
22104;BME280;11218;48.886;9.426;2023-05-19T08:07:48;98428.34;;;14.03;58.06
22104;BME280;11218;48.886;9.426;2023-05-19T08:10:16;98433.22;;;14.01;58.97
22104;BME280;11218;48.886;9.426;2023-05-19T08:12:45;98428.13;;;14.10;58.12
22104;BME280;11218;48.886;9.426;2023-05-19T08:15:15;98435.94;;;14.11;58.82
22104;BME280;11218;48.886;9.426;2023-05-19T08:17:44;98426.22;;;14.10;58.33
22104;BME280;11218;48.886;9.426;2023-05-19T08:20:14;98420.31;;;14.24;58.76
22104;BME280;11218;48.886;9.426;2023-05-19T08:22:42;98419.50;;;14.28;59.24
22104;BME280;11218;48.886;9.426;2023-05-19T08:25:11;98419.25;;;14.30;58.79
22104;BME280;11218;48.886;9.426;2023-05-19T08:27:40;98424.94;;;14.28;58.16
22104;BME280;11218;48.886;9.426;2023-05-19T08:30:09;98419.53;;;14.33;58.11
22104;BME280;11218;48.886;9.426;2023-05-19T08:32:38;98426.59;;;14.34;58.44
22104;BME280;11218;48.886;9.426;2023-05-19T08:35:08;98417.66;;;14.34;59.01
22104;BME280;11218;48.886;9.426;2023-05-19T08:37:36;98416.31;;;14.36;59.11
22104;BME280;11218;48.886;9.426;2023-05-19T08:40:05;98423.09;;;14.39;59.18
22104;BME280;11218;48.886;9.426;2023-05-19T08:42:34;98423.16;;;14.49;58.81
22104;BME280;11218;48.886;9.426;2023-05-19T08:45:03;98428.81;;;14.42;57.44
22104;BME280;11218;48.886;9.426;2023-05-19T08:47:32;98416.31;;;14.36;57.74
22104;BME280;11218;48.886;9.426;2023-05-19T08:50:04;98421.78;;;14.41;58.11
22104;BME280;11218;48.886;9.426;2023-05-19T08:52:42;98421.50;;;14.43;58.74
22104;BME280;11218;48.886;9.426;2023-05-19T08:55:27;98420.72;;;14.48;58.20
22104;BME280;11218;48.886;9.426;2023-05-19T08:57:57;98414.22;;;14.54;58.41
22104;BME280;11218;48.886;9.426;2023-05-19T09:00:25;98407.75;;;14.60;57.76
22104;BME280;11218;48.886;9.426;2023-05-19T09:02:55;98412.94;;;14.71;57.48
22104;BME280;11218;48.886;9.426;2023-05-19T09:05:44;98406.16;;;14.74;58.16
22104;BME280;11218;48.886;9.426;2023-05-19T09:08:12;98414.31;;;14.79;57.48
22104;BME280;11218;48.886;9.426;2023-05-19T09:10:41;98410.78;;;14.78;57.27
22104;BME280;11218;48.886;9.426;2023-05-19T09:13:09;98407.53;;;14.82;58.10
22104;BME280;11218;48.886;9.426;2023-05-19T09:15:38;98408.91;;;14.84;58.79
22104;BME280;11218;48.886;9.426;2023-05-19T09:18:08;98396.41;;;14.93;57.89
22104;BME280;11218;48.886;9.426;2023-05-19T09:20:38;98407.25;;;14.93;58.01
22104;BME280;11218;48.886;9.426;2023-05-19T09:23:11;98404.56;;;14.98;57.70
22104;BME280;11218;48.886;9.426;2023-05-19T09:25:46;98408.09;;;15.09;57.82
22104;BME280;11218;48.886;9.426;2023-05-19T09:28:22;98405.41;;;15.14;57.28
22104;BME280;11218;48.886;9.426;2023-05-19T09:31:00;98397.81;;;15.16;56.90
22104;BME280;11218;48.886;9.426;2023-05-19T09:33:29;98404.03;;;15.32;56.58
22104;BME280;11218;48.886;9.426;2023-05-19T09:35:59;98398.06;;;15.30;56.83
22104;BME280;11218;48.886;9.426;2023-05-19T09:38:30;98402.97;;;15.43;55.43
22104;BME280;11218;48.886;9.426;2023-05-19T09:40:59;98412.19;;;15.42;54.62
22104;BME280;11218;48.886;9.426;2023-05-19T09:43:30;98406.75;;;15.37;54.91
22104;BME280;11218;48.886;9.426;2023-05-19T09:46:01;98395.63;;;15.13;56.01
22104;BME280;11218;48.886;9.426;2023-05-19T09:48:30;98396.72;;;15.17;56.03
22104;BME280;11218;48.886;9.426;2023-05-19T09:50:59;98398.88;;;15.15;56.67
22104;BME280;11218;48.886;9.426;2023-05-19T09:53:29;98405.13;;;15.31;56.76
22104;BME280;11218;48.886;9.426;2023-05-19T09:55:59;98394.28;;;15.26;57.01
22104;BME280;11218;48.886;9.426;2023-05-19T09:58:30;98397.25;;;15.29;56.56
22104;BME280;11218;48.886;9.426;2023-05-19T10:01:00;98392.13;;;15.28;56.21
22104;BME280;11218;48.886;9.426;2023-05-19T10:03:36;98392.13;;;15.28;56.06
22104;BME280;11218;48.886;9.426;2023-05-19T10:06:06;98396.72;;;15.22;56.71
22104;BME280;11218;48.886;9.426;2023-05-19T10:08:37;98391.28;;;15.22;55.32
22104;BME280;11218;48.886;9.426;2023-05-19T10:11:09;98386.94;;;15.11;56.68
22104;BME280;11218;48.886;9.426;2023-05-19T10:13:38;98399.69;;;15.10;55.89
22104;BME280;11218;48.886;9.426;2023-05-19T10:16:07;98388.56;;;15.12;56.15
22104;BME280;11218;48.886;9.426;2023-05-19T10:18:38;98385.31;;;15.10;55.53
22104;BME280;11218;48.886;9.426;2023-05-19T10:21:07;98389.94;;;15.15;56.09
22104;BME280;11218;48.886;9.426;2023-05-19T10:23:39;98390.47;;;15.27;55.83
22104;BME280;11218;48.886;9.426;2023-05-19T10:26:07;98386.41;;;15.34;55.92
22104;BME280;11218;48.886;9.426;2023-05-19T10:28:38;98382.63;;;15.30;56.30
22104;BME280;11218;48.886;9.426;2023-05-19T10:31:11;98386.16;;;15.36;55.90
22104;BME280;11218;48.886;9.426;2023-05-19T10:33:58;98382.63;;;15.35;55.66
22104;BME280;11218;48.886;9.426;2023-05-19T10:36:42;98381.53;;;15.31;54.81
22104;BME280;11218;48.886;9.426;2023-05-19T10:39:16;98401.34;;;15.32;55.17
22104;BME280;11218;48.886;9.426;2023-05-19T10:41:51;98393.47;;;15.20;55.35
22104;BME280;11218;48.886;9.426;2023-05-19T10:44:30;98385.88;;;15.32;56.30
22104;BME280;11218;48.886;9.426;2023-05-19T10:47:05;98392.38;;;15.21;56.11
22104;BME280;11218;48.886;9.426;2023-05-19T10:49:34;98383.97;;;15.23;55.90
22104;BME280;11218;48.886;9.426;2023-05-19T10:52:03;98379.38;;;15.23;56.77
22104;BME280;11218;48.886;9.426;2023-05-19T10:54:47;98378.81;;;15.21;56.21
22104;BME280;11218;48.886;9.426;2023-05-19T10:57:16;98374.47;;;15.30;56.64
22104;BME280;11218;48.886;9.426;2023-05-19T10:59:44;98381.00;;;15.24;56.06
22104;BME280;11218;48.886;9.426;2023-05-19T11:02:37;98384.78;;;15.23;56.65
22104;BME280;11218;48.886;9.426;2023-05-19T11:05:10;98370.41;;;15.38;56.91
22104;BME280;11218;48.886;9.426;2023-05-19T11:07:41;98384.25;;;15.41;56.87
22104;BME280;11218;48.886;9.426;2023-05-19T11:10:12;98386.94;;;15.47;57.16
22104;BME280;11218;48.886;9.426;2023-05-19T11:12:41;98379.91;;;15.51;56.39
22104;BME280;11218;48.886;9.426;2023-05-19T11:15:13;98375.56;;;15.60;57.06
22104;BME280;11218;48.886;9.426;2023-05-19T11:17:50;98371.19;;;15.64;57.02
22104;BME280;11218;48.886;9.426;2023-05-19T11:20:22;98377.69;;;15.68;56.75
22104;BME280;11218;48.886;9.426;2023-05-19T11:23:03;98374.72;;;15.69;56.46
22104;BME280;11218;48.886;9.426;2023-05-19T11:25:44;98370.09;;;15.80;55.71
22104;BME280;11218;48.886;9.426;2023-05-19T11:28:14;98367.91;;;15.82;55.11
22104;BME280;11218;48.886;9.426;2023-05-19T11:30:46;98370.88;;;15.91;55.44
22104;BME280;11218;48.886;9.426;2023-05-19T11:33:19;98366.22;;;15.96;54.99
22104;BME280;11218;48.886;9.426;2023-05-19T11:35:53;98373.28;;;16.02;55.46
22104;BME280;11218;48.886;9.426;2023-05-19T11:38:23;98369.41;;;16.19;54.78
22104;BME280;11218;48.886;9.426;2023-05-19T11:40:54;98368.59;;;16.18;53.93
22104;BME280;11218;48.886;9.426;2023-05-19T11:43:22;98369.69;;;16.17;53.93
22104;BME280;11218;48.886;9.426;2023-05-19T11:45:52;98362.31;;;16.28;52.93
22104;BME280;11218;48.886;9.426;2023-05-19T11:48:21;98361.28;;;16.19;53.76
22104;BME280;11218;48.886;9.426;2023-05-19T11:50:50;98362.84;;;16.30;53.17
22104;BME280;11218;48.886;9.426;2023-05-19T11:53:22;98360.94;;;16.30;54.10
22104;BME280;11218;48.886;9.426;2023-05-19T11:55:56;98357.69;;;16.33;53.42
22104;BME280;11218;48.886;9.426;2023-05-19T11:58:31;98357.97;;;16.27;53.58
22104;BME280;11218;48.886;9.426;2023-05-19T12:01:02;98355.81;;;16.24;54.30
22104;BME280;11218;48.886;9.426;2023-05-19T12:03:31;98360.44;;;16.23;53.91
22104;BME280;11218;48.886;9.426;2023-05-19T12:06:02;98356.91;;;16.23;54.44
22104;BME280;11218;48.886;9.426;2023-05-19T12:08:31;98356.94;;;16.13;55.27
22104;BME280;11218;48.886;9.426;2023-05-19T12:11:01;98354.50;;;16.16;55.00
22104;BME280;11218;48.886;9.426;2023-05-19T12:13:29;98357.78;;;16.08;55.23
22104;BME280;11218;48.886;9.426;2023-05-19T12:15:58;98358.88;;;16.02;53.57
22104;BME280;11218;48.886;9.426;2023-05-19T12:18:28;98357.78;;;16.03;54.53
22104;BME280;11218;48.886;9.426;2023-05-19T12:20:58;98352.34;;;16.08;54.41
22104;BME280;11218;48.886;9.426;2023-05-19T12:23:27;98345.84;;;16.04;54.10
22104;BME280;11218;48.886;9.426;2023-05-19T12:25:58;98353.72;;;16.05;53.75
22104;BME280;11218;48.886;9.426;2023-05-19T12:28:30;98354.28;;;16.02;54.83
22104;BME280;11218;48.886;9.426;2023-05-19T12:30:58;98353.94;;;16.14;54.84
22104;BME280;11218;48.886;9.426;2023-05-19T12:33:27;98349.03;;;16.21;55.32
22104;BME280;11218;48.886;9.426;2023-05-19T12:35:56;98344.66;;;16.25;55.77
22104;BME280;11218;48.886;9.426;2023-05-19T12:38:24;98350.63;;;16.32;55.16
22104;BME280;11218;48.886;9.426;2023-05-19T12:40:52;98349.53;;;16.33;55.30
22104;BME280;11218;48.886;9.426;2023-05-19T12:43:21;98342.13;;;16.39;55.60
22104;BME280;11218;48.886;9.426;2023-05-19T12:45:51;98345.13;;;16.37;55.14
22104;BME280;11218;48.886;9.426;2023-05-19T12:48:20;98357.69;;;16.33;53.70
22104;BME280;11218;48.886;9.426;2023-05-19T12:50:50;98352.56;;;16.22;52.87
22104;BME280;11218;48.886;9.426;2023-05-19T12:53:19;98347.47;;;16.05;54.10
22104;BME280;11218;48.886;9.426;2023-05-19T12:55:50;98348.25;;;16.10;54.02
22104;BME280;11218;48.886;9.426;2023-05-19T12:58:20;98356.16;;;16.02;54.30
22104;BME280;11218;48.886;9.426;2023-05-19T13:00:49;98352.94;;;15.90;55.03
22104;BME280;11218;48.886;9.426;2023-05-19T13:03:19;98345.91;;;15.84;55.91
22104;BME280;11218;48.886;9.426;2023-05-19T13:05:49;98347.53;;;15.85;55.41
22104;BME280;11218;48.886;9.426;2023-05-19T13:08:19;98350.25;;;15.80;55.81
22104;BME280;11218;48.886;9.426;2023-05-19T13:10:47;98351.88;;;15.81;54.46
22104;BME280;11218;48.886;9.426;2023-05-19T13:13:16;98347.53;;;15.80;55.61
22104;BME280;11218;48.886;9.426;2023-05-19T13:15:45;98347.00;;;15.83;56.17